Terminal Aerodrome Forecast
Issued by NWS Chicago, IL

Home | Current Version | Previous Version | Text Only | Print | Product List | Glossary Off
Versions: 1 2 3 4 5 6 7 8 9 10 11 12 13 14 15 16 17 18 19 20 21

000
FTUS43 KLOT 240200 AAA
TAFRFD
TAF AMD
KRFD 240257Z 2403/2424 20005KT P6SM SCT025 BKN035
     FM240600 34004KT P6SM OVC100
     FM240900 36005KT 6SM BR SCT025 OVC100
     FM241500 36011G18KT 3SM -SN BR SCT008 OVC015 PROB30 2416/2420
      1SM -SN OVC008
     FM242100 30012KT 4SM -SN BR OVC010=

USA.gov is the U.S. government's official web portal to all federal, state and local government web resources and services.